createdAt,value
2023-06-29T00:00:03.373Z,0
2023-06-29T00:05:03.286Z,0
2023-06-29T00:10:03.553Z,0
2023-06-29T00:15:03.122Z,0
2023-06-29T00:20:03.068Z,0
2023-06-29T00:25:02.772Z,0
2023-06-29T00:30:02.523Z,0
2023-06-29T00:35:02.743Z,0
2023-06-29T00:40:02.634Z,0
2023-06-29T00:45:03.540Z,0
2023-06-29T00:50:02.900Z,0
2023-06-29T00:55:03.235Z,0
2023-06-29T01:00:02.494Z,0
2023-06-29T01:05:03.282Z,0
2023-06-29T01:10:03.004Z,0
2023-06-29T01:15:03.491Z,0
2023-06-29T01:20:03.044Z,0
2023-06-29T01:25:02.825Z,0
2023-06-29T01:30:02.874Z,0
2023-06-29T01:35:03.296Z,0
2023-06-29T01:40:03.162Z,0
2023-06-29T01:45:02.966Z,0
2023-06-29T01:50:02.772Z,0
2023-06-29T01:55:03.479Z,0
2023-06-29T02:00:02.656Z,0
2023-06-29T02:05:03.344Z,0
2023-06-29T02:10:03.106Z,0
2023-06-29T02:15:02.913Z,0
2023-06-29T02:20:02.577Z,0
2023-06-29T02:25:02.428Z,0
2023-06-29T02:30:03.429Z,0.91
2023-06-29T02:35:02.893Z,8.33
2023-06-29T02:40:02.657Z,16.67
2023-06-29T02:45:02.579Z,26.67
2023-06-29T02:50:02.615Z,40
2023-06-29T02:55:02.909Z,56.67
2023-06-29T03:00:03.475Z,78.33
2023-06-29T03:05:03.075Z,105
2023-06-29T03:10:02.867Z,141.67
2023-06-29T03:15:02.813Z,176.67
2023-06-29T03:20:02.958Z,236.67
2023-06-29T03:25:02.555Z,268.33
2023-06-29T03:30:03.296Z,331.67
2023-06-29T03:35:02.906Z,405
2023-06-29T03:40:02.707Z,468.33
2023-06-29T03:45:02.527Z,490
2023-06-29T03:50:02.548Z,526.67
2023-06-29T03:55:03.992Z,571.67
2023-06-29T04:00:03.315Z,590
2023-06-29T04:05:02.905Z,676.67
2023-06-29T04:10:02.761Z,768.33
2023-06-29T04:15:02.517Z,958.33
2023-06-29T04:20:03.360Z,1105
2023-06-29T04:25:03.141Z,1176.67
2023-06-29T04:30:03.227Z,1266.67
2023-06-29T04:35:03.030Z,1243.33
2023-06-29T04:40:02.656Z,1321.67
2023-06-29T04:45:03.416Z,1421.67
2023-06-29T04:50:03.192Z,1435
2023-06-29T04:55:03.824Z,1601.67
2023-06-29T05:00:03.189Z,1941.67
2023-06-29T05:05:02.852Z,2170
2023-06-29T05:10:02.740Z,2045
2023-06-29T05:15:02.665Z,1978.33
2023-06-29T05:20:03.379Z,1845
2023-06-29T05:25:02.456Z,1868.33
2023-06-29T05:30:03.360Z,1788.33
2023-06-29T05:35:03.112Z,1918.33
2023-06-29T05:40:02.891Z,2030
2023-06-29T05:45:02.980Z,2088.33
2023-06-29T05:50:02.708Z,2125
2023-06-29T05:55:03.279Z,2316.67
2023-06-29T06:00:03.221Z,2615
2023-06-29T06:05:02.907Z,2766.67
2023-06-29T06:10:02.821Z,3063.33
2023-06-29T06:15:02.697Z,3283.33
2023-06-29T06:20:02.548Z,3566.67
2023-06-29T06:25:03.208Z,3826.67
2023-06-29T06:30:02.452Z,4103.33
2023-06-29T06:35:02.423Z,4800
2023-06-29T06:40:03.143Z,5336.67
2023-06-29T06:45:02.856Z,5630
2023-06-29T06:50:02.592Z,5660
2023-06-29T06:55:03.904Z,5696.67
2023-06-29T07:00:03.092Z,6258.33
2023-06-29T07:05:02.828Z,6958.33
2023-06-29T07:10:02.448Z,7380
2023-06-29T07:15:03.236Z,7955
2023-06-29T07:25:02.897Z,9575
2023-06-29T07:30:03.372Z,10796.67
2023-06-29T07:35:03.190Z,10543.33
2023-06-29T07:40:02.841Z,10116.67
2023-06-29T07:45:02.796Z,10133.33
2023-06-29T07:50:02.995Z,10195
2023-06-29T07:55:03.109Z,10611.67
2023-06-29T08:00:02.630Z,10955
2023-06-29T08:10:03.284Z,9875
2023-06-29T08:15:03.257Z,9678.33
2023-06-29T08:20:03.144Z,9596.67
2023-06-29T08:25:02.905Z,9991.67
2023-06-29T08:30:03.116Z,11248.33
2023-06-29T08:35:03.039Z,10116.67
2023-06-29T08:40:02.619Z,9645
2023-06-29T08:45:02.561Z,10383.33
2023-06-29T08:50:03.331Z,11360
2023-06-29T08:55:03.650Z,11725
2023-06-29T09:00:03.222Z,13050
2023-06-29T09:05:02.920Z,30670
2023-06-29T09:10:02.739Z,33126.67
2023-06-29T09:15:03.419Z,35340
2023-06-29T09:20:03.149Z,39170
2023-06-29T09:25:28.344Z,39220
2023-06-29T09:30:03.357Z,35986.67
2023-06-29T09:35:03.144Z,41370
2023-06-29T09:40:02.985Z,37480
2023-06-29T09:45:02.592Z,38403.33
2023-06-29T09:50:03.708Z,47376.67
2023-06-29T09:55:03.924Z,68022.5
2023-06-29T10:00:03.062Z,79008.59
2023-06-29T10:05:03.395Z,115873.28
2023-06-29T10:10:03.134Z,107514.22
2023-06-29T10:15:02.809Z,13130
2023-06-29T10:20:03.098Z,112588.59
2023-06-29T10:25:02.847Z,95631.48
2023-06-29T10:30:02.705Z,101433.59
2023-06-29T10:35:02.563Z,90125.86
2023-06-29T10:40:03.298Z,117758.2
2023-06-29T10:45:03.080Z,117758.2
2023-06-29T10:50:03.110Z,117758.2
2023-06-29T10:55:04.067Z,117758.2
2023-06-29T11:00:02.900Z,117758.2
2023-06-29T11:05:02.619Z,114721.48
2023-06-29T11:10:02.735Z,117758.2
2023-06-29T11:20:02.796Z,117758.2
2023-06-29T11:25:05.640Z,117758.2
2023-06-29T11:30:02.932Z,117643.2
2023-06-29T11:35:03.379Z,106263.59
2023-06-29T11:40:03.292Z,113231.87
2023-06-29T11:45:02.889Z,114313.59
2023-06-29T11:50:02.986Z,97293.59
2023-06-29T11:55:03.014Z,99697.81
2023-06-29T12:00:02.519Z,117758.2
2023-06-29T12:05:03.602Z,47050
2023-06-29T12:10:03.134Z,116360.23
2023-06-29T12:15:03.105Z,112302.89
2023-06-29T12:20:11.182Z,29320
2023-06-29T12:25:02.969Z,31886.67
2023-06-29T12:30:02.556Z,36140
2023-06-29T12:35:03.274Z,12675
2023-06-29T12:40:03.021Z,33396.67
2023-06-29T12:45:02.749Z,34310
2023-06-29T12:50:03.405Z,29310
2023-06-29T12:55:04.063Z,30673.33
2023-06-29T13:00:02.880Z,32860
2023-06-29T13:05:02.603Z,35703.33
2023-06-29T13:10:03.354Z,35313.33
2023-06-29T13:15:03.499Z,36080
2023-06-29T13:20:02.823Z,36436.67
2023-06-29T13:25:02.692Z,34650
2023-06-29T13:30:02.554Z,35756.67
2023-06-29T13:35:03.341Z,35003.33
2023-06-29T13:40:03.037Z,32160
2023-06-29T13:45:03.041Z,27933.33
2023-06-29T13:50:02.949Z,12981.67
2023-06-29T13:55:03.059Z,12060
2023-06-29T14:00:02.982Z,11485
2023-06-29T14:05:03.261Z,11695
2023-06-29T14:10:03.025Z,11881.67
2023-06-29T14:15:02.789Z,12096.67
2023-06-29T14:20:02.589Z,12951.67
2023-06-29T14:25:02.445Z,27306.25
2023-06-29T14:30:03.313Z,28603.33
2023-06-29T14:35:03.105Z,33126.67
2023-06-29T14:40:02.792Z,67841.02
2023-06-29T14:45:02.565Z,33386.67
2023-06-29T14:50:03.290Z,27626.67
2023-06-29T14:55:03.208Z,12005
2023-06-29T15:00:03.172Z,31763.33
2023-06-29T15:05:02.831Z,67801.48
2023-06-29T15:10:02.810Z,70151.8
2023-06-29T15:15:02.612Z,47606.67
2023-06-29T15:20:03.274Z,47153.33
2023-06-29T15:25:03.001Z,37486.67
2023-06-29T15:30:02.978Z,36490
2023-06-29T15:35:02.936Z,27496.67
2023-06-29T15:40:02.945Z,6468.33
2023-06-29T15:45:02.568Z,4886.67
2023-06-29T15:50:03.139Z,5213.33
2023-06-29T15:55:03.755Z,5211.67
2023-06-29T16:00:02.958Z,5070
2023-06-29T16:05:02.696Z,5876.67
2023-06-29T16:10:02.586Z,6251.67
2023-06-29T16:15:03.476Z,5876.67
2023-06-29T16:20:03.315Z,5393.33
2023-06-29T16:25:03.009Z,4755
2023-06-29T16:30:02.840Z,4141.67
2023-06-29T16:35:03.616Z,3460
2023-06-29T16:40:03.253Z,3261.67
2023-06-29T16:45:02.976Z,3093.33
2023-06-29T16:50:03.386Z,3151.67
2023-06-29T16:55:03.415Z,3033.33
2023-06-29T17:00:02.954Z,2830
2023-06-29T17:05:02.597Z,2628.33
2023-06-29T17:10:02.676Z,2340
2023-06-29T17:15:02.608Z,1943.33
2023-06-29T17:20:03.486Z,1451.67
2023-06-29T17:25:03.291Z,1230
2023-06-29T17:30:02.827Z,1621.67
2023-06-29T17:35:02.453Z,1643.33
2023-06-29T17:40:03.256Z,1480
2023-06-29T17:45:03.216Z,1306.67
2023-06-29T17:50:03.196Z,1220
2023-06-29T17:55:03.595Z,1363.33
2023-06-29T18:00:02.673Z,1475
2023-06-29T18:05:02.741Z,1546.67
2023-06-29T18:10:02.572Z,1530
2023-06-29T18:15:02.638Z,1478.33
2023-06-29T18:20:03.664Z,1441.67
2023-06-29T18:25:03.286Z,1391.67
2023-06-29T18:30:02.807Z,1160
2023-06-29T18:35:02.485Z,1231.67
2023-06-29T18:40:03.250Z,1321.67
2023-06-29T18:45:03.103Z,1140
2023-06-29T18:50:02.831Z,973.33
2023-06-29T18:55:03.440Z,795
2023-06-29T19:00:03.167Z,666.67
2023-06-29T19:05:02.892Z,480
2023-06-29T19:10:02.654Z,350
2023-06-29T19:15:02.591Z,278.33
2023-06-29T19:20:02.445Z,193.33
2023-06-29T19:25:03.116Z,145
2023-06-29T19:30:03.191Z,101.67
2023-06-29T19:35:02.817Z,65
2023-06-29T19:40:02.564Z,41.67
2023-06-29T19:45:03.413Z,28.33
2023-06-29T19:50:03.434Z,8.33
2023-06-29T19:55:03.216Z,0.91
2023-06-29T20:00:02.883Z,0
2023-06-29T20:05:02.755Z,0
2023-06-29T20:10:03.321Z,0
2023-06-29T20:15:03.228Z,0
2023-06-29T20:20:02.994Z,0
2023-06-29T20:25:02.682Z,0
2023-06-29T20:30:02.408Z,0
2023-06-29T20:35:03.314Z,0
2023-06-29T20:40:03.294Z,0
2023-06-29T20:45:03.280Z,0
2023-06-29T20:50:02.620Z,0
2023-06-29T20:55:03.676Z,0
2023-06-29T21:00:03.076Z,0
2023-06-29T21:05:03.149Z,0
2023-06-29T21:10:02.642Z,0
2023-06-29T21:15:02.458Z,0
2023-06-29T21:20:02.402Z,0
2023-06-29T21:25:03.398Z,0
2023-06-29T21:30:03.050Z,0
2023-06-29T21:35:03.090Z,0
2023-06-29T21:40:03.196Z,0
2023-06-29T21:45:02.965Z,0
2023-06-29T21:50:02.801Z,0
2023-06-29T21:55:03.613Z,0
2023-06-29T22:00:03.475Z,0
2023-06-29T22:05:03.255Z,0
2023-06-29T22:10:02.973Z,0
2023-06-29T22:15:03.108Z,0
2023-06-29T22:20:02.843Z,0
2023-06-29T22:25:02.693Z,0
2023-06-29T22:30:03.247Z,0
2023-06-29T22:35:03.254Z,0
2023-06-29T22:40:03.072Z,0
2023-06-29T22:45:02.886Z,0
2023-06-29T22:50:02.612Z,0
2023-06-29T22:55:03.875Z,0
2023-06-29T23:00:02.985Z,0
2023-06-29T23:05:02.881Z,0
2023-06-29T23:10:02.426Z,0
2023-06-29T23:15:02.471Z,0
2023-06-29T23:20:03.185Z,0
2023-06-29T23:25:03.136Z,0
2023-06-29T23:30:02.805Z,0
2023-06-29T23:35:02.568Z,0
2023-06-29T23:40:03.224Z,0
2023-06-29T23:45:03.143Z,0
2023-06-29T23:50:02.633Z,0
2023-06-29T23:55:03.028Z,0
